Time;durP1;ratioP1;P1;durP2;ratioP2;P2;SDS_P1;SDS_P2;PMS_P1;PMS_P2;Temp;Humidity;BMP_temperature;BMP_pressure;BME280_temperature;BME280_humidity;BME280_pressure;Samples;Min_cycle;Max_cycle;Signal;HPM_P1;HPM_P2
2022/08/16 00:02:18;;;;;;;60.70;4.00;;;;;;;;;;5114005;28;20472;-65
2022/08/16 00:04:45;;;;;;;58.90;3.57;;;;;;;;;;5114031;28;20441;-65
2022/08/16 00:07:12;;;;;;;60.37;3.93;;;;;;;;;;5113799;28;20468;-65
2022/08/16 00:09:39;;;;;;;59.13;3.23;;;;;;;;;;5113798;28;20488;-65
2022/08/16 00:12:08;;;;;;;60.43;3.77;;;;;;;;;;5113876;28;20461;-65
2022/08/16 00:14:35;;;;;;;60.40;4.13;;;;;;;;;;5113803;28;20490;-65
2022/08/16 00:17:03;;;;;;;60.47;3.60;;;;;;;;;;5112757;28;20453;-65
2022/08/16 00:19:32;;;;;;;59.90;3.87;;;;;;;;;;5113373;28;20782;-65
2022/08/16 00:22:00;;;;;;;58.93;3.50;;;;;;;;;;5113500;28;20548;-65
2022/08/16 00:24:27;;;;;;;60.03;4.10;;;;;;;;;;5113774;28;20541;-65
2022/08/16 00:26:55;;;;;;;59.60;3.77;;;;;;;;;;5113692;28;20445;-65
2022/08/16 00:29:23;;;;;;;59.57;3.97;;;;;;;;;;5113289;28;20448;-65
2022/08/16 00:31:52;;;;;;;59.80;4.33;;;;;;;;;;5113403;28;20468;-65
2022/08/16 00:34:20;;;;;;;61.97;4.37;;;;;;;;;;5113577;28;20481;-65
2022/08/16 00:36:47;;;;;;;60.40;3.90;;;;;;;;;;5113531;28;20550;-65
2022/08/16 00:39:14;;;;;;;59.60;3.77;;;;;;;;;;5112951;28;20451;-65
2022/08/16 00:41:42;;;;;;;59.60;3.60;;;;;;;;;;5113298;28;20469;-65
2022/08/16 00:44:10;;;;;;;59.90;4.13;;;;;;;;;;5113283;28;20441;-65
2022/08/16 00:46:43;;;;;;;60.27;4.07;;;;;;;;;;5113069;28;20453;-65
2022/08/16 00:49:12;;;;;;;59.07;3.63;;;;;;;;;;5112835;28;20977;-65
2022/08/16 00:51:40;;;;;;;59.20;3.80;;;;;;;;;;5113088;28;20465;-65
2022/08/16 00:54:07;;;;;;;59.37;3.43;;;;;;;;;;5112977;28;20485;-66
2022/08/16 00:56:36;;;;;;;61.53;3.97;;;;;;;;;;5113053;28;20532;-66
2022/08/16 00:59:04;;;;;;;60.37;4.20;;;;;;;;;;5112563;28;20470;-66
2022/08/16 01:01:31;;;;;;;59.20;3.20;;;;;;;;;;5112835;28;20470;-66
2022/08/16 01:04:00;;;;;;;59.50;3.87;;;;;;;;;;5113001;28;20445;-66
2022/08/16 01:06:29;;;;;;;59.67;3.90;;;;;;;;;;5112837;28;20452;-66
2022/08/16 01:08:57;;;;;;;59.67;3.80;;;;;;;;;;5112562;28;20460;-66
2022/08/16 01:11:25;;;;;;;60.10;4.07;;;;;;;;;;5112617;28;20465;-66
2022/08/16 01:13:54;;;;;;;59.70;3.90;;;;;;;;;;5112616;28;20449;-66
2022/08/16 01:16:23;;;;;;;59.70;4.33;;;;;;;;;;5112639;28;20454;-66
2022/08/16 01:18:52;;;;;;;59.70;4.03;;;;;;;;;;5112424;28;20814;-65
2022/08/16 01:21:30;;;;;;;61.07;4.80;;;;;;;;;;5112484;28;20466;-65
2022/08/16 01:24:01;;;;;;;59.70;4.07;;;;;;;;;;5112572;28;20484;-65
2022/08/16 01:26:30;;;;;;;61.90;4.10;;;;;;;;;;5112771;28;20441;-66
2022/08/16 01:28:58;;;;;;;60.57;4.50;;;;;;;;;;5111885;28;20541;-65
2022/08/16 01:31:26;;;;;;;59.57;3.93;;;;;;;;;;5112488;28;20472;-65
2022/08/16 01:33:54;;;;;;;59.20;3.63;;;;;;;;;;5112441;28;20468;-65
2022/08/16 01:36:22;;;;;;;60.00;4.60;;;;;;;;;;5112353;28;20536;-65
2022/08/16 01:38:50;;;;;;;59.90;3.93;;;;;;;;;;5111969;28;20447;-65
2022/08/16 01:41:20;;;;;;;59.67;3.70;;;;;;;;;;5110598;28;20461;-65
2022/08/16 01:43:48;;;;;;;59.37;3.73;;;;;;;;;;5112304;28;20480;-65
2022/08/16 01:46:20;;;;;;;60.00;3.37;;;;;;;;;;5112184;28;20444;-65
2022/08/16 01:48:47;;;;;;;60.10;4.40;;;;;;;;;;5112108;28;20454;-65
2022/08/16 01:51:17;;;;;;;59.50;3.80;;;;;;;;;;5112216;28;20472;-65
2022/08/16 01:53:44;;;;;;;60.63;4.00;;;;;;;;;;5112153;28;20464;-65
2022/08/16 01:56:11;;;;;;;60.37;4.40;;;;;;;;;;5112167;28;20481;-65
2022/08/16 01:58:39;;;;;;;59.97;4.30;;;;;;;;;;5111782;28;20442;-65
2022/08/16 02:01:07;;;;;;;59.93;4.03;;;;;;;;;;5112023;28;20462;-65
2022/08/16 02:03:34;;;;;;;59.87;3.90;;;;;;;;;;5112206;28;20449;-65
2022/08/16 02:06:01;;;;;;;60.97;4.27;;;;;;;;;;5112166;28;20461;-66
2022/08/16 02:08:29;;;;;;;59.17;3.37;;;;;;;;;;5111937;28;20969;-66
2022/08/16 02:10:56;;;;;;;60.23;3.53;;;;;;;;;;5112073;28;20864;-67
2022/08/16 02:13:23;;;;;;;59.77;3.73;;;;;;;;;;5111976;28;20825;-66
2022/08/16 02:15:52;;;;;;;60.20;4.43;;;;;;;;;;5111822;28;20484;-66
2022/08/16 02:18:19;;;;;;;59.40;4.00;;;;;;;;;;5111821;28;20441;-65
2022/08/16 02:20:52;;;;;;;60.00;3.80;;;;;;;;;;5111844;28;20445;-67
2022/08/16 02:23:19;;;;;;;59.60;4.33;;;;;;;;;;5112069;28;20453;-67
2022/08/16 02:25:47;;;;;;;58.70;3.57;;;;;;;;;;5111936;28;20446;-67
2022/08/16 02:28:15;;;;;;;59.30;3.97;;;;;;;;;;5111996;28;20476;-66
2022/08/16 02:30:42;;;;;;;60.80;3.80;;;;;;;;;;5111723;28;20550;-67
2022/08/16 02:33:11;;;;;;;60.03;3.70;;;;;;;;;;5112068;28;20809;-67
2022/08/16 02:35:39;;;;;;;62.17;4.30;;;;;;;;;;5111792;28;20481;-67
2022/08/16 02:38:07;;;;;;;59.60;3.60;;;;;;;;;;5111738;28;20937;-66
2022/08/16 02:40:34;;;;;;;60.00;4.20;;;;;;;;;;5112884;28;20445;-66
2022/08/16 02:43:01;;;;;;;61.10;4.20;;;;;;;;;;5115735;28;20473;-66
2022/08/16 02:45:28;;;;;;;60.57;4.50;;;;;;;;;;5115784;28;20467;-66
2022/08/16 02:47:56;;;;;;;59.77;3.80;;;;;;;;;;5115723;28;20441;-67
2022/08/16 02:50:24;;;;;;;60.40;4.17;;;;;;;;;;5115350;28;20441;-66
2022/08/16 02:52:51;;;;;;;66.53;4.93;;;;;;;;;;5115271;28;20469;-67
2022/08/16 02:55:19;;;;;;;60.90;4.17;;;;;;;;;;5115399;28;20481;-67
2022/08/16 02:57:46;;;;;;;59.47;4.10;;;;;;;;;;5115564;28;20806;-67
2022/08/16 03:00:14;;;;;;;60.30;4.23;;;;;;;;;;5115229;28;20453;-67
2022/08/16 03:02:43;;;;;;;59.20;3.70;;;;;;;;;;5115419;28;20540;-67
2022/08/16 03:05:11;;;;;;;59.20;3.60;;;;;;;;;;5115393;28;20452;-67
2022/08/16 03:07:40;;;;;;;59.07;3.43;;;;;;;;;;5115179;28;20457;-67
2022/08/16 03:10:10;;;;;;;59.37;3.43;;;;;;;;;;5115139;28;20545;-68
2022/08/16 03:12:37;;;;;;;59.37;3.90;;;;;;;;;;5115130;28;20469;-67
2022/08/16 03:15:04;;;;;;;58.93;3.70;;;;;;;;;;5115288;28;20575;-67
2022/08/16 03:17:32;;;;;;;59.80;3.67;;;;;;;;;;5115087;28;20441;-67
2022/08/16 03:19:59;;;;;;;59.80;4.30;;;;;;;;;;5114659;28;20550;-66
2022/08/16 03:22:26;;;;;;;61.27;4.20;;;;;;;;;;5114852;28;20472;-67
2022/08/16 03:24:55;;;;;;;59.87;4.30;;;;;;;;;;5115066;28;20448;-67
2022/08/16 03:27:22;;;;;;;59.83;4.47;;;;;;;;;;5114999;28;20558;-68
2022/08/16 03:29:49;;;;;;;59.40;3.87;;;;;;;;;;5114442;28;20449;-67
2022/08/16 03:32:16;;;;;;;59.27;3.83;;;;;;;;;;5114689;28;20461;-67
2022/08/16 03:34:45;;;;;;;60.50;4.57;;;;;;;;;;5114323;28;20446;-66
2022/08/16 03:37:12;;;;;;;59.60;3.70;;;;;;;;;;5114809;28;20506;-67
2022/08/16 03:39:39;;;;;;;60.07;3.93;;;;;;;;;;5114159;28;20446;-67
2022/08/16 03:42:08;;;;;;;60.33;5.13;;;;;;;;;;5114578;28;20465;-67
2022/08/16 03:44:35;;;;;;;60.40;4.37;;;;;;;;;;5114453;28;20445;-67
2022/08/16 03:47:02;;;;;;;60.13;4.23;;;;;;;;;;5114533;28;20442;-66
2022/08/16 03:49:29;;;;;;;62.90;4.10;;;;;;;;;;5114303;28;20789;-67
2022/08/16 03:51:57;;;;;;;59.87;3.77;;;;;;;;;;5114469;28;20481;-67
2022/08/16 03:54:24;;;;;;;60.77;4.10;;;;;;;;;;5114014;28;20456;-66
2022/08/16 03:56:51;;;;;;;60.23;4.50;;;;;;;;;;5114293;28;20487;-67
2022/08/16 03:59:19;;;;;;;60.00;3.70;;;;;;;;;;5113905;28;20445;-67
2022/08/16 04:01:46;;;;;;;61.23;4.40;;;;;;;;;;5114062;28;20505;-67
2022/08/16 04:04:14;;;;;;;60.47;4.23;;;;;;;;;;5114425;28;20448;-66
2022/08/16 04:06:41;;;;;;;60.07;3.90;;;;;;;;;;5114239;28;20437;-66
2022/08/16 04:09:08;;;;;;;59.10;3.83;;;;;;;;;;5114053;28;20449;-67
2022/08/16 04:11:36;;;;;;;60.27;4.30;;;;;;;;;;5114013;28;20556;-67
2022/08/16 04:14:03;;;;;;;62.03;4.77;;;;;;;;;;5113945;28;20491;-67
2022/08/16 04:16:32;;;;;;;60.77;4.53;;;;;;;;;;5114033;28;20477;-67
2022/08/16 04:18:59;;;;;;;61.27;4.40;;;;;;;;;;5113830;28;20442;-67
2022/08/16 04:21:26;;;;;;;60.33;4.00;;;;;;;;;;5114003;28;20883;-68
2022/08/16 04:23:53;;;;;;;64.30;4.30;;;;;;;;;;5113956;28;20505;-67
2022/08/16 04:26:20;;;;;;;59.60;4.50;;;;;;;;;;5113837;28;20464;-67
2022/08/16 04:28:47;;;;;;;60.00;4.43;;;;;;;;;;5113489;28;20820;-68
2022/08/16 04:31:14;;;;;;;61.53;4.40;;;;;;;;;;5113843;28;20472;-67
2022/08/16 04:33:43;;;;;;;60.70;4.27;;;;;;;;;;5113636;28;20453;-67
2022/08/16 04:36:10;;;;;;;59.97;4.03;;;;;;;;;;5113373;28;20488;-67
2022/08/16 04:38:38;;;;;;;60.57;4.67;;;;;;;;;;5113016;28;20544;-67
2022/08/16 04:41:05;;;;;;;59.90;3.70;;;;;;;;;;5113423;28;20466;-67
2022/08/16 04:43:37;;;;;;;61.90;4.33;;;;;;;;;;5113783;28;20445;-67
2022/08/16 04:46:04;;;;;;;60.43;4.80;;;;;;;;;;5113582;28;20446;-67
2022/08/16 04:48:31;;;;;;;59.70;4.13;;;;;;;;;;5113226;28;20468;-67
2022/08/16 04:50:59;;;;;;;59.97;4.27;;;;;;;;;;5113108;28;20455;-67
2022/08/16 04:53:27;;;;;;;59.87;4.40;;;;;;;;;;5113096;28;20464;-67
2022/08/16 04:55:54;;;;;;;59.77;4.40;;;;;;;;;;5113014;28;20571;-68
2022/08/16 04:58:21;;;;;;;59.97;3.83;;;;;;;;;;5113077;28;20884;-67
2022/08/16 05:00:49;;;;;;;59.10;4.40;;;;;;;;;;5112553;28;20441;-68
2022/08/16 05:03:16;;;;;;;59.80;3.63;;;;;;;;;;5112638;28;20441;-67
2022/08/16 05:05:43;;;;;;;59.20;4.13;;;;;;;;;;5112991;28;20446;-67
2022/08/16 05:08:11;;;;;;;59.20;3.80;;;;;;;;;;5112793;28;20441;-67
2022/08/16 05:10:38;;;;;;;59.80;4.40;;;;;;;;;;5112857;28;20445;-68
2022/08/16 05:13:07;;;;;;;60.57;4.63;;;;;;;;;;5112657;28;20993;-67
2022/08/16 05:15:34;;;;;;;59.97;4.17;;;;;;;;;;5112810;28;20923;-67
2022/08/16 05:18:02;;;;;;;60.53;4.23;;;;;;;;;;5112834;28;20545;-67
2022/08/16 05:20:30;;;;;;;59.70;4.00;;;;;;;;;;5112643;28;20457;-67
2022/08/16 05:22:57;;;;;;;60.40;4.00;;;;;;;;;;5112558;28;20461;-68
2022/08/16 05:25:26;;;;;;;59.43;4.17;;;;;;;;;;5113097;28;20442;-67
2022/08/16 05:27:54;;;;;;;60.17;4.27;;;;;;;;;;5112457;28;20952;-67
2022/08/16 05:30:21;;;;;;;58.90;3.80;;;;;;;;;;5112175;28;20964;-67
2022/08/16 05:32:48;;;;;;;60.30;4.00;;;;;;;;;;5112418;28;20843;-67
2022/08/16 05:35:15;;;;;;;61.27;4.97;;;;;;;;;;5112345;28;20545;-67
2022/08/16 05:37:43;;;;;;;59.70;4.00;;;;;;;;;;5112610;28;20438;-67
2022/08/16 05:40:11;;;;;;;62.17;4.40;;;;;;;;;;5112254;28;21141;-67
2022/08/16 05:42:39;;;;;;;59.50;3.70;;;;;;;;;;5112445;28;20465;-67
2022/08/16 05:45:07;;;;;;;59.97;4.33;;;;;;;;;;5112496;28;20444;-67
2022/08/16 05:47:34;;;;;;;59.80;4.30;;;;;;;;;;5112342;28;20525;-67
2022/08/16 05:50:02;;;;;;;60.57;4.53;;;;;;;;;;5111899;28;20473;-67
2022/08/16 05:52:29;;;;;;;59.83;4.00;;;;;;;;;;5112581;28;20468;-67
2022/08/16 05:54:56;;;;;;;66.87;5.00;;;;;;;;;;5112128;28;20459;-67
2022/08/16 05:57:23;;;;;;;59.37;4.20;;;;;;;;;;5112156;28;20477;-67
2022/08/16 05:59:52;;;;;;;59.57;3.83;;;;;;;;;;5111913;28;20450;-67
2022/08/16 06:02:20;;;;;;;59.50;3.93;;;;;;;;;;5112054;28;20461;-67
2022/08/16 06:04:47;;;;;;;60.50;4.93;;;;;;;;;;5111945;28;20448;-67
2022/08/16 06:07:15;;;;;;;59.20;3.80;;;;;;;;;;5112375;28;20444;-68
2022/08/16 06:09:42;;;;;;;59.47;4.10;;;;;;;;;;5111929;28;20447;-68
2022/08/16 06:12:09;;;;;;;59.60;4.00;;;;;;;;;;5112244;28;20457;-67
2022/08/16 06:14:36;;;;;;;59.93;4.37;;;;;;;;;;5112888;28;20438;-67
2022/08/16 06:17:05;;;;;;;59.00;3.50;;;;;;;;;;5116349;28;20477;-67
2022/08/16 06:19:32;;;;;;;59.20;3.73;;;;;;;;;;5116122;28;20450;-68
2022/08/16 06:21:59;;;;;;;59.20;3.70;;;;;;;;;;5116037;28;20468;-67
2022/08/16 06:24:26;;;;;;;60.03;4.03;;;;;;;;;;5116216;28;20443;-68
2022/08/16 06:26:53;;;;;;;58.80;3.57;;;;;;;;;;5116202;28;20465;-67
2022/08/16 06:29:21;;;;;;;59.80;3.93;;;;;;;;;;5115749;28;20533;-67
2022/08/16 06:31:48;;;;;;;59.87;3.80;;;;;;;;;;5115760;28;20551;-68
2022/08/16 06:34:17;;;;;;;59.47;3.60;;;;;;;;;;5116130;28;20471;-67
2022/08/16 06:36:44;;;;;;;59.60;4.53;;;;;;;;;;5115848;28;21040;-67
2022/08/16 06:39:11;;;;;;;59.20;3.93;;;;;;;;;;5115707;28;20443;-68
2022/08/16 06:41:38;;;;;;;59.70;3.53;;;;;;;;;;5116050;28;20470;-68
2022/08/16 06:44:05;;;;;;;59.10;3.50;;;;;;;;;;5115630;28;20457;-67
2022/08/16 06:46:34;;;;;;;59.40;3.90;;;;;;;;;;5115678;28;20443;-67
2022/08/16 06:49:01;;;;;;;61.13;4.40;;;;;;;;;;5115559;28;20452;-68
2022/08/16 06:51:29;;;;;;;58.87;3.70;;;;;;;;;;5115909;28;20476;-67
2022/08/16 06:53:56;;;;;;;59.13;3.73;;;;;;;;;;5115586;28;20472;-68
2022/08/16 06:56:24;;;;;;;61.77;4.30;;;;;;;;;;5115409;28;20514;-68
2022/08/16 06:58:52;;;;;;;58.70;3.80;;;;;;;;;;5115168;28;20445;-67
2022/08/16 07:01:19;;;;;;;59.60;4.00;;;;;;;;;;5116081;28;20495;-67
2022/08/16 07:03:47;;;;;;;59.30;4.00;;;;;;;;;;5115774;28;20839;-68
2022/08/16 07:06:14;;;;;;;58.90;3.73;;;;;;;;;;5115256;28;20535;-68
2022/08/16 07:08:42;;;;;;;59.27;3.67;;;;;;;;;;5115112;28;20455;-67
2022/08/16 07:11:10;;;;;;;60.50;4.50;;;;;;;;;;5115082;28;21010;-68
2022/08/16 07:13:37;;;;;;;59.67;4.07;;;;;;;;;;5115513;28;20457;-68
2022/08/16 07:16:05;;;;;;;59.70;3.87;;;;;;;;;;5115164;28;20484;-68
2022/08/16 07:18:32;;;;;;;58.70;3.53;;;;;;;;;;5115047;28;20452;-67
2022/08/16 07:21:00;;;;;;;60.00;4.10;;;;;;;;;;5115128;28;20445;-68
2022/08/16 07:23:27;;;;;;;59.83;3.90;;;;;;;;;;5115068;28;20445;-68
2022/08/16 07:25:56;;;;;;;60.30;3.97;;;;;;;;;;5114321;28;20444;-68
2022/08/16 07:28:23;;;;;;;59.47;4.03;;;;;;;;;;5115000;28;20453;-67
2022/08/16 07:30:50;;;;;;;60.13;3.50;;;;;;;;;;5114552;28;21009;-68
2022/08/16 07:33:17;;;;;;;60.33;3.90;;;;;;;;;;5115120;28;20452;-67
2022/08/16 07:35:45;;;;;;;65.60;4.10;;;;;;;;;;5114969;28;20456;-68
2022/08/16 07:38:12;;;;;;;60.67;4.13;;;;;;;;;;5114990;28;20434;-68
2022/08/16 07:40:39;;;;;;;59.57;3.87;;;;;;;;;;5114510;28;20444;-67
2022/08/16 07:43:08;;;;;;;61.07;3.70;;;;;;;;;;5114699;28;20457;-68
2022/08/16 07:45:35;;;;;;;59.83;4.03;;;;;;;;;;5114981;28;20445;-68
2022/08/16 07:48:02;;;;;;;59.00;3.33;;;;;;;;;;5114594;28;20528;-68
2022/08/16 07:50:29;;;;;;;59.40;4.00;;;;;;;;;;5114226;28;20952;-67
2022/08/16 07:52:56;;;;;;;59.20;3.80;;;;;;;;;;5114170;28;21053;-68
2022/08/16 07:55:23;;;;;;;59.90;3.90;;;;;;;;;;5114759;28;20446;-68
2022/08/16 07:57:50;;;;;;;67.90;4.63;;;;;;;;;;5114419;28;20535;-68
2022/08/16 08:00:19;;;;;;;60.07;4.33;;;;;;;;;;5114095;28;20448;-68
2022/08/16 08:02:46;;;;;;;59.37;3.60;;;;;;;;;;5114714;28;20471;-67
2022/08/16 08:05:13;;;;;;;60.53;4.40;;;;;;;;;;5114594;28;20438;-67
2022/08/16 08:07:40;;;;;;;60.40;4.47;;;;;;;;;;5113974;28;20444;-67
2022/08/16 08:10:08;;;;;;;58.53;3.20;;;;;;;;;;5114156;28;20525;-68
2022/08/16 08:12:36;;;;;;;59.47;4.63;;;;;;;;;;5114385;28;20468;-68
2022/08/16 08:15:04;;;;;;;59.77;4.23;;;;;;;;;;5114135;28;20454;-68
2022/08/16 08:17:33;;;;;;;59.50;4.50;;;;;;;;;;5114486;28;20831;-68
2022/08/16 08:20:00;;;;;;;59.53;4.10;;;;;;;;;;5113613;28;20836;-67
2022/08/16 08:22:27;;;;;;;59.57;3.87;;;;;;;;;;5114273;28;20462;-68
2022/08/16 08:24:54;;;;;;;58.70;4.13;;;;;;;;;;5113858;28;20453;-67
2022/08/16 08:27:21;;;;;;;60.07;4.50;;;;;;;;;;5113805;28;20444;-68
2022/08/16 08:29:49;;;;;;;60.13;4.13;;;;;;;;;;5113467;28;20495;-68
2022/08/16 08:32:16;;;;;;;58.33;3.53;;;;;;;;;;5113821;28;20476;-67
2022/08/16 08:34:44;;;;;;;61.00;4.77;;;;;;;;;;5113390;28;20450;-67
2022/08/16 08:37:11;;;;;;;65.70;4.53;;;;;;;;;;5113729;28;20473;-68
2022/08/16 08:39:38;;;;;;;59.10;4.50;;;;;;;;;;5113218;28;20455;-68
2022/08/16 08:42:06;;;;;;;59.10;3.70;;;;;;;;;;5114390;28;20472;-68
2022/08/16 08:44:34;;;;;;;60.13;3.60;;;;;;;;;;5114033;28;20446;-68
2022/08/16 08:47:01;;;;;;;60.20;4.77;;;;;;;;;;5113330;28;20933;-68
2022/08/16 08:49:29;;;;;;;60.07;4.33;;;;;;;;;;5113561;28;20449;-67
2022/08/16 08:51:57;;;;;;;59.97;4.47;;;;;;;;;;5114160;28;20816;-68
2022/08/16 08:54:25;;;;;;;60.17;4.00;;;;;;;;;;5114355;28;20972;-68
2022/08/16 08:56:52;;;;;;;58.90;3.87;;;;;;;;;;5114752;27;20530;-68
2022/08/16 08:59:20;;;;;;;60.67;4.20;;;;;;;;;;5114179;28;20445;-68
2022/08/16 09:01:47;;;;;;;59.30;3.83;;;;;;;;;;5114302;28;20464;-68
2022/08/16 09:04:15;;;;;;;62.53;4.10;;;;;;;;;;5114722;28;20536;-68
2022/08/16 09:06:42;;;;;;;61.57;4.03;;;;;;;;;;5114366;28;20967;-68
2022/08/16 09:09:11;;;;;;;59.87;4.20;;;;;;;;;;5113828;28;20537;-68
2022/08/16 09:11:41;;;;;;;59.47;3.90;;;;;;;;;;5114553;28;20465;-68
2022/08/16 09:14:08;;;;;;;59.00;3.90;;;;;;;;;;5114480;28;20453;-68
2022/08/16 09:16:36;;;;;;;58.97;3.40;;;;;;;;;;5114248;28;20453;-68
2022/08/16 09:19:03;;;;;;;60.27;4.00;;;;;;;;;;5114222;28;20445;-68
2022/08/16 09:21:30;;;;;;;61.80;4.43;;;;;;;;;;5114205;28;20465;-65
2022/08/16 09:23:57;;;;;;;59.10;3.80;;;;;;;;;;5114565;28;20937;-68
2022/08/16 09:26:26;;;;;;;60.30;4.03;;;;;;;;;;5114144;28;20469;-68
2022/08/16 09:28:53;;;;;;;61.20;4.27;;;;;;;;;;5113453;28;20460;-68
2022/08/16 09:31:20;;;;;;;59.57;3.27;;;;;;;;;;5114163;28;20472;-66
2022/08/16 09:33:47;;;;;;;61.07;3.87;;;;;;;;;;5114245;28;20975;-66
2022/08/16 09:36:14;;;;;;;58.90;4.07;;;;;;;;;;5114045;28;20438;-67
2022/08/16 09:38:41;;;;;;;60.80;4.13;;;;;;;;;;5113847;28;20855;-68
2022/08/16 09:41:10;;;;;;;58.57;3.70;;;;;;;;;;5114200;28;20465;-68
2022/08/16 09:43:39;;;;;;;64.20;4.00;;;;;;;;;;5113911;28;20441;-65
2022/08/16 09:46:07;;;;;;;58.67;3.40;;;;;;;;;;5114025;28;20445;-69
2022/08/16 09:48:36;;;;;;;59.17;4.00;;;;;;;;;;5113355;28;20541;-65
2022/08/16 09:51:04;;;;;;;59.67;3.73;;;;;;;;;;5113884;28;20492;-68
2022/08/16 09:53:31;;;;;;;60.10;4.33;;;;;;;;;;5113568;28;20465;-68
2022/08/16 09:56:00;;;;;;;58.47;3.40;;;;;;;;;;5113542;28;20450;-65
2022/08/16 09:58:27;;;;;;;58.83;3.30;;;;;;;;;;5113041;28;20478;-65
2022/08/16 10:00:56;;;;;;;58.97;3.90;;;;;;;;;;5112973;28;21028;-68
2022/08/16 10:03:23;;;;;;;58.93;3.67;;;;;;;;;;5113236;28;20448;-66
2022/08/16 10:05:50;;;;;;;59.47;3.83;;;;;;;;;;5112718;28;20825;-66
2022/08/16 10:08:18;;;;;;;58.70;3.80;;;;;;;;;;5112546;28;20445;-66
2022/08/16 10:13:10;;;;;;;58.67;3.70;;;;;;;;;;5112938;28;20469;-65
2022/08/16 10:13:33;;;;;;;58.40;3.13;;;;;;;;;;5113225;28;20460;-66
2022/08/16 10:16:01;;;;;;;59.50;3.57;;;;;;;;;;5112729;28;20445;-66
2022/08/16 10:18:29;;;;;;;59.30;3.60;;;;;;;;;;5112464;28;20488;-66
2022/08/16 10:20:58;;;;;;;59.97;4.13;;;;;;;;;;5111934;28;20959;-67
2022/08/16 10:23:25;;;;;;;58.27;3.20;;;;;;;;;;5112535;28;20866;-67
2022/08/16 10:25:52;;;;;;;58.70;3.50;;;;;;;;;;5112384;28;20452;-67
2022/08/16 10:28:20;;;;;;;58.87;3.90;;;;;;;;;;5113188;28;20438;-66
2022/08/16 10:30:47;;;;;;;60.57;4.30;;;;;;;;;;5113469;28;20464;-67
2022/08/16 10:33:16;;;;;;;58.53;3.17;;;;;;;;;;5113676;28;20536;-67
2022/08/16 10:35:44;;;;;;;60.47;3.80;;;;;;;;;;5113282;28;20460;-67
2022/08/16 10:38:12;;;;;;;58.80;3.50;;;;;;;;;;5113539;28;21019;-65
2022/08/16 10:40:39;;;;;;;58.90;3.70;;;;;;;;;;5113495;28;20452;-67
2022/08/16 10:43:07;;;;;;;60.10;4.60;;;;;;;;;;5113548;28;20465;-68
2022/08/16 10:45:34;;;;;;;60.37;4.20;;;;;;;;;;5113355;28;20437;-67
2022/08/16 10:48:01;;;;;;;59.00;3.87;;;;;;;;;;5112814;28;20442;-67
2022/08/16 10:50:31;;;;;;;61.70;3.60;;;;;;;;;;5113394;28;20894;-67
2022/08/16 10:52:58;;;;;;;60.10;3.87;;;;;;;;;;5112386;28;20466;-67
2022/08/16 10:55:25;;;;;;;58.90;3.80;;;;;;;;;;5112032;28;20446;-67
2022/08/16 10:57:54;;;;;;;60.47;3.60;;;;;;;;;;5111692;28;20848;-68
2022/08/16 11:00:22;;;;;;;58.90;3.80;;;;;;;;;;5111373;28;20461;-67
2022/08/16 11:02:51;;;;;;;58.50;3.30;;;;;;;;;;5115923;28;20475;-67
2022/08/16 11:05:18;;;;;;;58.77;3.70;;;;;;;;;;5116111;28;20441;-68
2022/08/16 11:07:47;;;;;;;58.57;3.10;;;;;;;;;;5116039;28;20881;-67
2022/08/16 11:10:15;;;;;;;59.00;3.87;;;;;;;;;;5114913;28;20449;-67
2022/08/16 11:12:42;;;;;;;58.67;3.80;;;;;;;;;;5115325;28;20469;-67
2022/08/16 11:15:10;;;;;;;59.10;3.73;;;;;;;;;;5115330;28;20603;-67
2022/08/16 11:17:38;;;;;;;58.00;3.53;;;;;;;;;;5115159;28;21005;-68
2022/08/16 11:20:06;;;;;;;57.83;3.30;;;;;;;;;;5114833;28;20452;-68
2022/08/16 11:22:33;;;;;;;58.10;3.30;;;;;;;;;;5114931;28;20572;-67
2022/08/16 11:25:02;;;;;;;57.57;3.00;;;;;;;;;;5115048;28;20448;-66
2022/08/16 11:27:29;;;;;;;58.97;3.50;;;;;;;;;;5114982;28;20946;-67
2022/08/16 11:29:57;;;;;;;58.20;3.23;;;;;;;;;;5115303;28;20448;-69
2022/08/16 11:32:25;;;;;;;58.10;3.13;;;;;;;;;;5114989;28;20896;-68
2022/08/16 11:34:52;;;;;;;57.70;2.87;;;;;;;;;;5115376;28;20451;-68
2022/08/16 11:37:19;;;;;;;58.90;3.50;;;;;;;;;;5115233;28;20450;-67
2022/08/16 11:39:46;;;;;;;57.97;3.43;;;;;;;;;;5114746;28;20450;-68
2022/08/16 11:42:15;;;;;;;57.57;3.10;;;;;;;;;;5115850;28;20475;-68
2022/08/16 11:44:42;;;;;;;58.00;3.20;;;;;;;;;;5117057;28;20812;-68
2022/08/16 11:47:09;;;;;;;57.30;2.80;;;;;;;;;;5117178;28;20811;-68
2022/08/16 11:49:36;;;;;;;57.87;3.20;;;;;;;;;;5117275;28;20446;-68
2022/08/16 11:52:04;;;;;;;57.40;2.87;;;;;;;;;;5118709;28;20501;-68
2022/08/16 11:54:31;;;;;;;57.80;3.17;;;;;;;;;;5117786;28;20450;-68
2022/08/16 11:56:58;;;;;;;58.23;3.10;;;;;;;;;;5117175;28;20445;-69
2022/08/16 11:59:28;;;;;;;57.40;2.90;;;;;;;;;;5116705;28;20568;-68
2022/08/16 12:01:55;;;;;;;57.20;2.80;;;;;;;;;;5118239;28;20470;-68
2022/08/16 12:04:22;;;;;;;59.70;3.17;;;;;;;;;;5117359;28;20533;-68
2022/08/16 12:06:49;;;;;;;56.87;2.63;;;;;;;;;;5116211;28;20942;-68
2022/08/16 12:09:16;;;;;;;57.03;3.00;;;;;;;;;;5114488;28;21034;-69
2022/08/16 12:11:44;;;;;;;57.30;3.20;;;;;;;;;;5116451;28;20568;-68
2022/08/16 12:14:11;;;;;;;56.77;3.10;;;;;;;;;;5116716;28;20455;-68
2022/08/16 12:16:40;;;;;;;56.97;2.90;;;;;;;;;;5117804;28;20832;-68
2022/08/16 12:19:09;;;;;;;57.27;2.97;;;;;;;;;;5116596;28;20816;-68
2022/08/16 12:21:36;;;;;;;57.40;3.40;;;;;;;;;;5116918;28;20471;-67
2022/08/16 12:24:04;;;;;;;57.40;3.10;;;;;;;;;;5116094;28;20441;-68
2022/08/16 12:26:31;;;;;;;57.50;3.00;;;;;;;;;;5116637;28;20448;-68
2022/08/16 12:29:02;;;;;;;57.87;3.00;;;;;;;;;;5116170;28;20481;-68
2022/08/16 12:31:30;;;;;;;57.37;3.23;;;;;;;;;;5116672;28;20469;-68
2022/08/16 12:33:58;;;;;;;56.97;2.90;;;;;;;;;;5117206;28;20449;-68
2022/08/16 12:36:26;;;;;;;57.13;2.83;;;;;;;;;;5116467;28;20448;-68
2022/08/16 12:38:54;;;;;;;57.10;2.93;;;;;;;;;;5115680;28;20446;-68
2022/08/16 12:41:22;;;;;;;59.83;3.87;;;;;;;;;;5116724;28;20469;-68
2022/08/16 12:43:49;;;;;;;57.37;2.83;;;;;;;;;;5116462;28;20437;-68
2022/08/16 12:46:16;;;;;;;56.97;2.90;;;;;;;;;;5116266;28;20532;-68
2022/08/16 12:48:57;;;;;;;60.20;3.53;;;;;;;;;;5116205;28;20483;-68
2022/08/16 12:51:30;;;;;;;56.93;2.93;;;;;;;;;;5116682;28;20833;-67
2022/08/16 12:53:58;;;;;;;57.17;3.17;;;;;;;;;;5116339;28;20461;-68
2022/08/16 12:56:27;;;;;;;56.93;2.90;;;;;;;;;;5115726;28;20817;-68
2022/08/16 12:58:55;;;;;;;57.10;2.73;;;;;;;;;;5115401;28;20437;-68
2022/08/16 13:01:23;;;;;;;57.87;3.10;;;;;;;;;;5116606;28;20844;-68
2022/08/16 13:03:50;;;;;;;57.33;3.27;;;;;;;;;;5115904;28;20877;-68
2022/08/16 13:06:17;;;;;;;57.07;2.93;;;;;;;;;;5115814;28;20450;-68
2022/08/16 13:08:46;;;;;;;56.97;2.80;;;;;;;;;;5115673;28;20473;-68
2022/08/16 13:11:15;;;;;;;57.20;2.90;;;;;;;;;;5115103;28;20913;-68
2022/08/16 13:13:42;;;;;;;56.60;2.80;;;;;;;;;;5114234;28;20471;-68
2022/08/16 13:16:10;;;;;;;57.73;3.13;;;;;;;;;;5114161;28;20885;-68
2022/08/16 13:18:37;;;;;;;57.73;3.13;;;;;;;;;;5114690;28;20465;-68
2022/08/16 13:21:05;;;;;;;57.23;2.90;;;;;;;;;;5115787;28;20469;-68
2022/08/16 13:23:32;;;;;;;57.07;3.00;;;;;;;;;;5114865;28;20883;-68
2022/08/16 13:26:00;;;;;;;57.17;3.17;;;;;;;;;;5114344;28;20481;-68
2022/08/16 13:28:28;;;;;;;57.57;3.17;;;;;;;;;;5113873;28;20488;-67
2022/08/16 13:30:56;;;;;;;58.33;3.10;;;;;;;;;;5112919;28;20949;-69
2022/08/16 13:33:25;;;;;;;57.53;3.40;;;;;;;;;;5112595;28;20454;-66
2022/08/16 13:35:53;;;;;;;57.60;3.30;;;;;;;;;;5112974;28;20477;-66
2022/08/16 13:38:21;;;;;;;57.40;3.30;;;;;;;;;;5113558;28;20600;-68
2022/08/16 13:40:48;;;;;;;56.87;3.00;;;;;;;;;;5114678;28;20469;-67
2022/08/16 13:43:18;;;;;;;57.33;2.93;;;;;;;;;;5115844;28;20934;-68
2022/08/16 13:45:45;;;;;;;57.27;3.20;;;;;;;;;;5114957;28;20446;-65
2022/08/16 13:48:12;;;;;;;57.90;3.17;;;;;;;;;;5114957;28;20549;-66
2022/08/16 13:50:40;;;;;;;57.37;2.90;;;;;;;;;;5114686;28;20448;-67
2022/08/16 13:53:07;;;;;;;57.30;3.57;;;;;;;;;;5115772;28;20564;-67
2022/08/16 13:55:34;;;;;;;57.10;2.90;;;;;;;;;;5115585;28;20544;-67
2022/08/16 13:58:01;;;;;;;56.87;2.80;;;;;;;;;;5115099;28;20442;-67
2022/08/16 14:00:30;;;;;;;57.30;3.10;;;;;;;;;;5114391;28;20482;-67
2022/08/16 14:02:57;;;;;;;58.53;3.70;;;;;;;;;;5115246;28;20470;-67
2022/08/16 14:05:24;;;;;;;57.03;2.90;;;;;;;;;;5115071;28;20591;-67
2022/08/16 14:07:51;;;;;;;57.37;3.20;;;;;;;;;;5115380;28;20449;-67
2022/08/16 14:10:18;;;;;;;57.80;3.10;;;;;;;;;;5114477;28;20442;-67
2022/08/16 14:12:45;;;;;;;57.40;3.07;;;;;;;;;;5114397;28;20465;-67
2022/08/16 14:15:14;;;;;;;57.67;3.50;;;;;;;;;;5114910;28;20834;-67
2022/08/16 14:17:43;;;;;;;57.50;3.33;;;;;;;;;;5116623;28;20441;-68
2022/08/16 14:20:10;;;;;;;62.30;3.43;;;;;;;;;;5115156;28;20433;-67
2022/08/16 14:22:39;;;;;;;57.90;3.37;;;;;;;;;;5114378;28;20466;-68
2022/08/16 14:25:07;;;;;;;56.40;2.63;;;;;;;;;;5114303;28;20959;-68
2022/08/16 14:27:34;;;;;;;56.80;3.10;;;;;;;;;;5113384;28;20859;-68
2022/08/16 14:30:01;;;;;;;57.10;3.40;;;;;;;;;;5112708;28;20859;-68
2022/08/16 14:32:29;;;;;;;56.90;3.10;;;;;;;;;;5114339;28;20552;-69
2022/08/16 14:34:59;;;;;;;57.17;2.90;;;;;;;;;;5113193;28;20441;-68